sensor_id;sensor_type;location;lat;lon;timestamp;P1;durP1;ratioP1;P2;durP2;ratioP2
54575;SDS011;40472;53.486;14.542;2023-03-04T00:01:58;15.75;;;4.82;;
54575;SDS011;40472;53.486;14.542;2023-03-04T00:04:24;13.20;;;4.15;;
54575;SDS011;40472;53.486;14.542;2023-03-04T00:06:50;14.98;;;4.38;;
54575;SDS011;40472;53.486;14.542;2023-03-04T00:09:16;17.85;;;4.10;;
54575;SDS011;40472;53.486;14.542;2023-03-04T00:11:41;8.15;;;3.70;;
54575;SDS011;40472;53.486;14.542;2023-03-04T00:14:07;13.65;;;3.53;;
54575;SDS011;40472;53.486;14.542;2023-03-04T00:16:33;9.88;;;2.70;;
54575;SDS011;40472;53.486;14.542;2023-03-04T00:18:59;9.77;;;3.30;;
54575;SDS011;40472;53.486;14.542;2023-03-04T00:21:24;24.40;;;3.83;;
54575;SDS011;40472;53.486;14.542;2023-03-04T00:23:50;5.82;;;3.10;;
54575;SDS011;40472;53.486;14.542;2023-03-04T00:26:16;9.40;;;2.42;;
54575;SDS011;40472;53.486;14.542;2023-03-04T00:28:42;14.93;;;3.45;;
54575;SDS011;40472;53.486;14.542;2023-03-04T00:31:09;16.00;;;2.70;;
54575;SDS011;40472;53.486;14.542;2023-03-04T00:33:35;13.82;;;3.13;;
54575;SDS011;40472;53.486;14.542;2023-03-04T00:36:01;9.32;;;2.70;;
54575;SDS011;40472;53.486;14.542;2023-03-04T00:38:28;8.85;;;3.75;;
54575;SDS011;40472;53.486;14.542;2023-03-04T00:40:53;11.75;;;3.35;;
54575;SDS011;40472;53.486;14.542;2023-03-04T00:43:19;11.35;;;3.78;;
54575;SDS011;40472;53.486;14.542;2023-03-04T00:45:45;8.80;;;2.85;;
54575;SDS011;40472;53.486;14.542;2023-03-04T00:48:11;16.35;;;3.38;;
54575;SDS011;40472;53.486;14.542;2023-03-04T00:50:37;5.63;;;2.42;;
54575;SDS011;40472;53.486;14.542;2023-03-04T00:53:03;18.40;;;3.75;;
54575;SDS011;40472;53.486;14.542;2023-03-04T00:55:29;23.95;;;5.60;;
54575;SDS011;40472;53.486;14.542;2023-03-04T00:57:55;13.20;;;3.13;;
54575;SDS011;40472;53.486;14.542;2023-03-04T01:00:21;9.80;;;2.45;;
54575;SDS011;40472;53.486;14.542;2023-03-04T01:02:47;22.42;;;3.22;;
54575;SDS011;40472;53.486;14.542;2023-03-04T01:05:12;14.30;;;3.30;;
54575;SDS011;40472;53.486;14.542;2023-03-04T01:07:38;19.15;;;3.33;;
54575;SDS011;40472;53.486;14.542;2023-03-04T01:10:04;18.08;;;4.30;;
54575;SDS011;40472;53.486;14.542;2023-03-04T01:12:31;11.93;;;2.70;;
54575;SDS011;40472;53.486;14.542;2023-03-04T01:14:57;12.75;;;2.80;;
54575;SDS011;40472;53.486;14.542;2023-03-04T01:17:23;5.53;;;2.03;;
54575;SDS011;40472;53.486;14.542;2023-03-04T01:19:48;16.85;;;4.20;;
54575;SDS011;40472;53.486;14.542;2023-03-04T01:22:14;19.02;;;5.07;;
54575;SDS011;40472;53.486;14.542;2023-03-04T01:24:41;11.85;;;3.80;;
54575;SDS011;40472;53.486;14.542;2023-03-04T01:27:07;20.42;;;4.93;;
54575;SDS011;40472;53.486;14.542;2023-03-04T01:29:33;16.27;;;5.65;;
54575;SDS011;40472;53.486;14.542;2023-03-04T01:31:58;26.08;;;7.13;;
54575;SDS011;40472;53.486;14.542;2023-03-04T01:34:24;12.63;;;4.32;;
54575;SDS011;40472;53.486;14.542;2023-03-04T01:36:50;16.90;;;5.03;;
54575;SDS011;40472;53.486;14.542;2023-03-04T01:39:15;10.60;;;2.65;;
54575;SDS011;40472;53.486;14.542;2023-03-04T01:41:41;16.00;;;4.97;;
54575;SDS011;40472;53.486;14.542;2023-03-04T01:44:08;27.27;;;4.07;;
54575;SDS011;40472;53.486;14.542;2023-03-04T01:46:35;25.30;;;4.75;;
54575;SDS011;40472;53.486;14.542;2023-03-04T01:49:01;9.32;;;4.20;;
54575;SDS011;40472;53.486;14.542;2023-03-04T01:51:27;12.00;;;3.83;;
54575;SDS011;40472;53.486;14.542;2023-03-04T01:53:53;11.63;;;2.83;;
54575;SDS011;40472;53.486;14.542;2023-03-04T02:01:34;13.35;;;2.42;;
54575;SDS011;40472;53.486;14.542;2023-03-04T02:04:00;23.08;;;3.25;;
54575;SDS011;40472;53.486;14.542;2023-03-04T02:06:26;3.33;;;1.90;;
54575;SDS011;40472;53.486;14.542;2023-03-04T02:08:52;9.00;;;2.67;;
54575;SDS011;40472;53.486;14.542;2023-03-04T02:11:18;15.50;;;4.13;;
54575;SDS011;40472;53.486;14.542;2023-03-04T02:13:44;17.80;;;3.47;;
54575;SDS011;40472;53.486;14.542;2023-03-04T02:16:09;17.10;;;3.10;;
54575;SDS011;40472;53.486;14.542;2023-03-04T02:18:35;14.27;;;2.78;;
54575;SDS011;40472;53.486;14.542;2023-03-04T02:23:44;5.55;;;1.95;;
54575;SDS011;40472;53.486;14.542;2023-03-04T02:26:15;10.45;;;2.35;;
54575;SDS011;40472;53.486;14.542;2023-03-04T02:28:47;10.65;;;1.77;;
54575;SDS011;40472;53.486;14.542;2023-03-04T02:36:40;8.73;;;2.35;;
54575;SDS011;40472;53.486;14.542;2023-03-04T02:39:21;7.45;;;1.92;;
54575;SDS011;40472;53.486;14.542;2023-03-04T02:41:48;12.63;;;3.00;;
54575;SDS011;40472;53.486;14.542;2023-03-04T02:44:16;13.85;;;2.13;;
54575;SDS011;40472;53.486;14.542;2023-03-04T02:46:44;5.95;;;2.35;;
54575;SDS011;40472;53.486;14.542;2023-03-04T02:49:10;7.53;;;1.98;;
54575;SDS011;40472;53.486;14.542;2023-03-04T02:51:37;8.57;;;3.17;;
54575;SDS011;40472;53.486;14.542;2023-03-04T02:54:03;7.20;;;1.77;;
54575;SDS011;40472;53.486;14.542;2023-03-04T02:56:29;6.60;;;1.45;;
54575;SDS011;40472;53.486;14.542;2023-03-04T02:58:55;20.30;;;2.63;;
54575;SDS011;40472;53.486;14.542;2023-03-04T03:01:21;6.75;;;1.60;;
54575;SDS011;40472;53.486;14.542;2023-03-04T03:03:47;10.98;;;2.35;;
54575;SDS011;40472;53.486;14.542;2023-03-04T03:06:12;12.85;;;2.33;;
54575;SDS011;40472;53.486;14.542;2023-03-04T03:08:38;10.40;;;1.73;;
54575;SDS011;40472;53.486;14.542;2023-03-04T03:11:04;23.08;;;4.80;;
54575;SDS011;40472;53.486;14.542;2023-03-04T03:13:30;12.10;;;2.53;;
54575;SDS011;40472;53.486;14.542;2023-03-04T03:15:55;6.47;;;1.98;;
54575;SDS011;40472;53.486;14.542;2023-03-04T03:18:21;29.48;;;3.60;;
54575;SDS011;40472;53.486;14.542;2023-03-04T03:20:47;8.52;;;2.03;;
54575;SDS011;40472;53.486;14.542;2023-03-04T03:23:13;7.95;;;1.63;;
54575;SDS011;40472;53.486;14.542;2023-03-04T03:25:39;14.88;;;2.53;;
54575;SDS011;40472;53.486;14.542;2023-03-04T03:28:04;10.48;;;2.45;;
54575;SDS011;40472;53.486;14.542;2023-03-04T03:30:30;9.73;;;2.38;;
54575;SDS011;40472;53.486;14.542;2023-03-04T03:32:56;13.00;;;2.40;;
54575;SDS011;40472;53.486;14.542;2023-03-04T03:35:22;15.40;;;2.15;;
54575;SDS011;40472;53.486;14.542;2023-03-04T03:37:47;10.73;;;2.05;;
54575;SDS011;40472;53.486;14.542;2023-03-04T03:40:13;13.70;;;2.60;;
54575;SDS011;40472;53.486;14.542;2023-03-04T03:42:39;6.38;;;2.20;;
54575;SDS011;40472;53.486;14.542;2023-03-04T03:45:05;7.38;;;1.98;;
54575;SDS011;40472;53.486;14.542;2023-03-04T03:47:31;19.63;;;2.53;;
54575;SDS011;40472;53.486;14.542;2023-03-04T03:49:57;8.10;;;2.35;;
54575;SDS011;40472;53.486;14.542;2023-03-04T03:52:22;13.25;;;2.58;;
54575;SDS011;40472;53.486;14.542;2023-03-04T03:54:48;13.77;;;1.80;;
54575;SDS011;40472;53.486;14.542;2023-03-04T03:57:14;12.35;;;2.88;;
54575;SDS011;40472;53.486;14.542;2023-03-04T03:59:40;17.13;;;1.55;;
54575;SDS011;40472;53.486;14.542;2023-03-04T04:02:05;11.43;;;1.85;;
54575;SDS011;40472;53.486;14.542;2023-03-04T04:04:31;8.23;;;2.65;;
54575;SDS011;40472;53.486;14.542;2023-03-04T04:06:57;16.73;;;3.50;;
54575;SDS011;40472;53.486;14.542;2023-03-04T04:09:23;5.90;;;2.28;;
54575;SDS011;40472;53.486;14.542;2023-03-04T04:11:48;9.90;;;2.63;;
54575;SDS011;40472;53.486;14.542;2023-03-04T04:14:14;6.43;;;2.00;;
54575;SDS011;40472;53.486;14.542;2023-03-04T04:16:40;10.43;;;2.35;;
54575;SDS011;40472;53.486;14.542;2023-03-04T04:19:06;15.75;;;3.53;;
54575;SDS011;40472;53.486;14.542;2023-03-04T04:21:31;11.25;;;2.15;;
54575;SDS011;40472;53.486;14.542;2023-03-04T04:23:57;16.77;;;2.38;;
54575;SDS011;40472;53.486;14.542;2023-03-04T04:26:23;12.93;;;2.50;;
54575;SDS011;40472;53.486;14.542;2023-03-04T04:28:49;5.15;;;2.42;;
54575;SDS011;40472;53.486;14.542;2023-03-04T04:31:14;8.45;;;1.13;;
54575;SDS011;40472;53.486;14.542;2023-03-04T04:33:40;4.82;;;1.58;;
54575;SDS011;40472;53.486;14.542;2023-03-04T04:36:08;11.18;;;1.85;;
54575;SDS011;40472;53.486;14.542;2023-03-04T04:38:37;6.53;;;2.10;;
54575;SDS011;40472;53.486;14.542;2023-03-04T04:41:03;8.00;;;1.88;;
54575;SDS011;40472;53.486;14.542;2023-03-04T04:43:29;8.98;;;1.42;;
54575;SDS011;40472;53.486;14.542;2023-03-04T04:45:55;15.50;;;2.65;;
54575;SDS011;40472;53.486;14.542;2023-03-04T04:48:23;6.18;;;1.85;;
54575;SDS011;40472;53.486;14.542;2023-03-04T04:50:53;6.20;;;1.63;;
54575;SDS011;40472;53.486;14.542;2023-03-04T04:53:20;4.13;;;1.58;;
54575;SDS011;40472;53.486;14.542;2023-03-04T04:55:45;6.18;;;1.70;;
54575;SDS011;40472;53.486;14.542;2023-03-04T04:58:11;10.90;;;2.10;;
54575;SDS011;40472;53.486;14.542;2023-03-04T05:00:37;5.97;;;2.63;;
54575;SDS011;40472;53.486;14.542;2023-03-04T05:03:03;4.93;;;1.80;;
54575;SDS011;40472;53.486;14.542;2023-03-04T05:05:28;7.10;;;1.58;;
54575;SDS011;40472;53.486;14.542;2023-03-04T05:07:54;4.40;;;1.45;;
54575;SDS011;40472;53.486;14.542;2023-03-04T05:10:20;3.65;;;1.20;;
54575;SDS011;40472;53.486;14.542;2023-03-04T05:12:45;8.82;;;2.05;;
54575;SDS011;40472;53.486;14.542;2023-03-04T05:15:11;7.40;;;1.17;;
54575;SDS011;40472;53.486;14.542;2023-03-04T05:17:37;5.57;;;1.40;;
54575;SDS011;40472;53.486;14.542;2023-03-04T05:20:02;17.02;;;1.67;;
54575;SDS011;40472;53.486;14.542;2023-03-04T05:22:30;8.88;;;1.75;;
54575;SDS011;40472;53.486;14.542;2023-03-04T05:24:56;8.88;;;1.95;;
54575;SDS011;40472;53.486;14.542;2023-03-04T05:27:23;3.45;;;1.67;;
54575;SDS011;40472;53.486;14.542;2023-03-04T05:29:49;9.60;;;1.70;;
54575;SDS011;40472;53.486;14.542;2023-03-04T05:32:15;9.00;;;1.70;;
54575;SDS011;40472;53.486;14.542;2023-03-04T05:34:41;11.07;;;1.65;;
54575;SDS011;40472;53.486;14.542;2023-03-04T05:37:07;12.02;;;1.80;;
54575;SDS011;40472;53.486;14.542;2023-03-04T05:39:32;6.55;;;1.08;;
54575;SDS011;40472;53.486;14.542;2023-03-04T05:41:58;5.53;;;1.48;;
54575;SDS011;40472;53.486;14.542;2023-03-04T05:44:24;8.80;;;1.85;;
54575;SDS011;40472;53.486;14.542;2023-03-04T05:46:49;6.47;;;1.77;;
54575;SDS011;40472;53.486;14.542;2023-03-04T05:49:15;15.30;;;1.73;;
54575;SDS011;40472;53.486;14.542;2023-03-04T05:51:41;7.53;;;2.35;;
54575;SDS011;40472;53.486;14.542;2023-03-04T05:54:06;8.02;;;1.30;;
54575;SDS011;40472;53.486;14.542;2023-03-04T05:56:32;11.52;;;1.85;;
54575;SDS011;40472;53.486;14.542;2023-03-04T05:58:58;8.57;;;1.30;;
54575;SDS011;40472;53.486;14.542;2023-03-04T06:01:24;11.32;;;1.88;;
54575;SDS011;40472;53.486;14.542;2023-03-04T06:03:50;7.88;;;1.85;;
54575;SDS011;40472;53.486;14.542;2023-03-04T06:06:16;3.38;;;0.90;;
54575;SDS011;40472;53.486;14.542;2023-03-04T06:08:42;7.03;;;2.40;;
54575;SDS011;40472;53.486;14.542;2023-03-04T06:11:08;3.47;;;1.35;;
54575;SDS011;40472;53.486;14.542;2023-03-04T06:13:34;15.27;;;1.98;;
54575;SDS011;40472;53.486;14.542;2023-03-04T06:15:59;4.97;;;1.27;;
54575;SDS011;40472;53.486;14.542;2023-03-04T06:18:26;4.60;;;1.30;;
54575;SDS011;40472;53.486;14.542;2023-03-04T06:20:59;7.68;;;1.60;;
54575;SDS011;40472;53.486;14.542;2023-03-04T06:23:27;7.50;;;2.05;;
54575;SDS011;40472;53.486;14.542;2023-03-04T06:25:53;10.77;;;1.55;;
54575;SDS011;40472;53.486;14.542;2023-03-04T06:28:21;5.20;;;1.38;;
54575;SDS011;40472;53.486;14.542;2023-03-04T06:30:47;5.63;;;1.52;;
54575;SDS011;40472;53.486;14.542;2023-03-04T06:33:15;6.38;;;1.85;;
54575;SDS011;40472;53.486;14.542;2023-03-04T06:35:41;3.00;;;1.77;;
54575;SDS011;40472;53.486;14.542;2023-03-04T06:38:07;6.55;;;1.50;;
54575;SDS011;40472;53.486;14.542;2023-03-04T06:40:33;4.63;;;2.00;;
54575;SDS011;40472;53.486;14.542;2023-03-04T06:42:58;9.40;;;1.83;;
54575;SDS011;40472;53.486;14.542;2023-03-04T06:45:24;5.78;;;1.38;;
54575;SDS011;40472;53.486;14.542;2023-03-04T06:47:50;4.38;;;1.13;;
54575;SDS011;40472;53.486;14.542;2023-03-04T06:50:15;11.02;;;2.05;;
54575;SDS011;40472;53.486;14.542;2023-03-04T06:52:42;7.28;;;1.35;;
54575;SDS011;40472;53.486;14.542;2023-03-04T06:55:07;7.90;;;1.45;;
54575;SDS011;40472;53.486;14.542;2023-03-04T06:57:34;15.90;;;2.05;;
54575;SDS011;40472;53.486;14.542;2023-03-04T07:00:00;6.22;;;1.42;;
54575;SDS011;40472;53.486;14.542;2023-03-04T07:02:27;8.75;;;2.53;;
54575;SDS011;40472;53.486;14.542;2023-03-04T07:04:53;11.90;;;2.22;;
54575;SDS011;40472;53.486;14.542;2023-03-04T07:07:18;6.32;;;1.48;;
54575;SDS011;40472;53.486;14.542;2023-03-04T07:09:44;3.55;;;1.23;;
54575;SDS011;40472;53.486;14.542;2023-03-04T07:12:10;3.70;;;1.52;;
54575;SDS011;40472;53.486;14.542;2023-03-04T07:14:35;7.28;;;1.50;;
54575;SDS011;40472;53.486;14.542;2023-03-04T07:17:01;5.82;;;1.58;;
54575;SDS011;40472;53.486;14.542;2023-03-04T07:19:27;6.80;;;1.30;;
54575;SDS011;40472;53.486;14.542;2023-03-04T07:21:52;6.20;;;1.40;;
54575;SDS011;40472;53.486;14.542;2023-03-04T07:24:18;2.40;;;1.13;;
54575;SDS011;40472;53.486;14.542;2023-03-04T07:26:44;9.60;;;1.75;;
54575;SDS011;40472;53.486;14.542;2023-03-04T07:29:10;15.43;;;2.22;;
54575;SDS011;40472;53.486;14.542;2023-03-04T07:31:37;5.00;;;1.38;;
54575;SDS011;40472;53.486;14.542;2023-03-04T07:34:03;5.88;;;1.58;;
54575;SDS011;40472;53.486;14.542;2023-03-04T07:36:31;2.58;;;1.33;;
54575;SDS011;40472;53.486;14.542;2023-03-04T07:38:59;5.75;;;1.90;;
54575;SDS011;40472;53.486;14.542;2023-03-04T07:41:26;4.65;;;1.35;;
54575;SDS011;40472;53.486;14.542;2023-03-04T07:43:54;21.02;;;2.22;;
54575;SDS011;40472;53.486;14.542;2023-03-04T07:46:21;4.25;;;1.52;;
54575;SDS011;40472;53.486;14.542;2023-03-04T07:48:48;3.92;;;1.33;;
54575;SDS011;40472;53.486;14.542;2023-03-04T07:51:18;11.65;;;1.90;;
54575;SDS011;40472;53.486;14.542;2023-03-04T07:53:46;3.80;;;1.95;;
54575;SDS011;40472;53.486;14.542;2023-03-04T07:56:15;5.90;;;1.73;;
54575;SDS011;40472;53.486;14.542;2023-03-04T07:58:43;3.85;;;0.93;;
54575;SDS011;40472;53.486;14.542;2023-03-04T08:01:10;10.18;;;1.17;;
54575;SDS011;40472;53.486;14.542;2023-03-04T08:03:37;3.20;;;1.00;;
54575;SDS011;40472;53.486;14.542;2023-03-04T08:06:04;9.35;;;1.77;;
54575;SDS011;40472;53.486;14.542;2023-03-04T08:08:31;8.93;;;1.60;;
54575;SDS011;40472;53.486;14.542;2023-03-04T08:10:57;4.57;;;1.00;;
54575;SDS011;40472;53.486;14.542;2023-03-04T08:13:23;5.30;;;1.63;;
54575;SDS011;40472;53.486;14.542;2023-03-04T08:15:48;6.50;;;1.83;;
54575;SDS011;40472;53.486;14.542;2023-03-04T08:18:14;6.05;;;1.42;;
54575;SDS011;40472;53.486;14.542;2023-03-04T08:20:41;5.97;;;2.30;;
54575;SDS011;40472;53.486;14.542;2023-03-04T08:23:07;2.95;;;1.55;;
54575;SDS011;40472;53.486;14.542;2023-03-04T08:25:39;7.32;;;1.55;;
54575;SDS011;40472;53.486;14.542;2023-03-04T08:28:06;3.75;;;1.77;;
54575;SDS011;40472;53.486;14.542;2023-03-04T08:30:32;2.15;;;0.73;;
54575;SDS011;40472;53.486;14.542;2023-03-04T08:33:00;16.02;;;1.33;;
54575;SDS011;40472;53.486;14.542;2023-03-04T08:35:27;7.05;;;1.85;;
54575;SDS011;40472;53.486;14.542;2023-03-04T08:37:53;5.78;;;1.05;;
54575;SDS011;40472;53.486;14.542;2023-03-04T08:40:19;7.50;;;1.27;;
54575;SDS011;40472;53.486;14.542;2023-03-04T08:42:45;4.65;;;1.63;;
54575;SDS011;40472;53.486;14.542;2023-03-04T08:45:10;7.63;;;1.52;;
54575;SDS011;40472;53.486;14.542;2023-03-04T08:47:36;7.30;;;1.10;;
54575;SDS011;40472;53.486;14.542;2023-03-04T08:50:05;14.68;;;2.55;;
54575;SDS011;40472;53.486;14.542;2023-03-04T08:52:32;3.00;;;1.65;;
54575;SDS011;40472;53.486;14.542;2023-03-04T08:54:59;9.30;;;1.23;;
54575;SDS011;40472;53.486;14.542;2023-03-04T08:57:25;7.47;;;0.93;;
54575;SDS011;40472;53.486;14.542;2023-03-04T08:59:51;9.75;;;1.42;;
54575;SDS011;40472;53.486;14.542;2023-03-04T09:02:17;8.90;;;1.92;;
54575;SDS011;40472;53.486;14.542;2023-03-04T09:04:43;7.88;;;1.48;;
54575;SDS011;40472;53.486;14.542;2023-03-04T09:07:09;7.43;;;1.38;;
54575;SDS011;40472;53.486;14.542;2023-03-04T09:09:35;7.00;;;1.17;;
54575;SDS011;40472;53.486;14.542;2023-03-04T09:12:01;11.65;;;1.75;;
54575;SDS011;40472;53.486;14.542;2023-03-04T09:14:27;4.88;;;1.17;;
54575;SDS011;40472;53.486;14.542;2023-03-04T09:16:53;5.07;;;2.47;;
54575;SDS011;40472;53.486;14.542;2023-03-04T09:19:19;18.10;;;3.40;;
54575;SDS011;40472;53.486;14.542;2023-03-04T09:21:48;7.57;;;2.47;;
54575;SDS011;40472;53.486;14.542;2023-03-04T09:24:13;10.80;;;1.77;;
54575;SDS011;40472;53.486;14.542;2023-03-04T09:26:39;7.60;;;2.10;;
54575;SDS011;40472;53.486;14.542;2023-03-04T09:29:05;7.55;;;1.52;;
54575;SDS011;40472;53.486;14.542;2023-03-04T09:31:31;10.60;;;2.10;;
54575;SDS011;40472;53.486;14.542;2023-03-04T09:33:57;3.95;;;1.42;;
54575;SDS011;40472;53.486;14.542;2023-03-04T09:36:24;4.47;;;1.08;;
54575;SDS011;40472;53.486;14.542;2023-03-04T09:38:50;8.82;;;1.67;;
54575;SDS011;40472;53.486;14.542;2023-03-04T09:41:17;5.38;;;2.25;;
54575;SDS011;40472;53.486;14.542;2023-03-04T09:43:50;6.28;;;1.65;;
54575;SDS011;40472;53.486;14.542;2023-03-04T09:46:32;10.43;;;2.08;;
54575;SDS011;40472;53.486;14.542;2023-03-04T09:49:02;13.95;;;1.20;;
54575;SDS011;40472;53.486;14.542;2023-03-04T09:55:02;6.55;;;1.48;;
54575;SDS011;40472;53.486;14.542;2023-03-04T09:57:29;5.55;;;1.30;;
54575;SDS011;40472;53.486;14.542;2023-03-04T10:00:20;9.50;;;2.13;;
54575;SDS011;40472;53.486;14.542;2023-03-04T10:05:26;7.97;;;1.55;;
54575;SDS011;40472;53.486;14.542;2023-03-04T10:07:56;13.00;;;1.42;;
54575;SDS011;40472;53.486;14.542;2023-03-04T10:10:26;7.38;;;1.60;;
54575;SDS011;40472;53.486;14.542;2023-03-04T10:12:59;14.80;;;2.20;;
54575;SDS011;40472;53.486;14.542;2023-03-04T10:20:57;9.20;;;1.88;;
54575;SDS011;40472;53.486;14.542;2023-03-04T10:23:45;9.43;;;1.60;;
54575;SDS011;40472;53.486;14.542;2023-03-04T10:26:14;3.50;;;1.25;;
54575;SDS011;40472;53.486;14.542;2023-03-04T10:28:45;6.82;;;2.13;;
54575;SDS011;40472;53.486;14.542;2023-03-04T10:33:43;15.40;;;2.25;;
54575;SDS011;40472;53.486;14.542;2023-03-04T10:39:09;14.93;;;1.77;;
54575;SDS011;40472;53.486;14.542;2023-03-04T10:41:40;7.93;;;1.50;;
54575;SDS011;40472;53.486;14.542;2023-03-04T10:46:38;6.78;;;1.20;;
54575;SDS011;40472;53.486;14.542;2023-03-04T10:49:04;14.68;;;1.63;;
54575;SDS011;40472;53.486;14.542;2023-03-04T10:51:30;8.65;;;1.92;;
54575;SDS011;40472;53.486;14.542;2023-03-04T10:56:43;7.22;;;1.80;;
54575;SDS011;40472;53.486;14.542;2023-03-04T11:02:24;3.60;;;1.23;;
54575;SDS011;40472;53.486;14.542;2023-03-04T11:11:43;8.25;;;1.30;;
54575;SDS011;40472;53.486;14.542;2023-03-04T11:14:16;6.65;;;2.00;;
54575;SDS011;40472;53.486;14.542;2023-03-04T11:16:52;7.65;;;1.50;;
54575;SDS011;40472;53.486;14.542;2023-03-04T11:19:24;8.85;;;1.50;;
54575;SDS011;40472;53.486;14.542;2023-03-04T11:21:55;3.80;;;1.35;;
54575;SDS011;40472;53.486;14.542;2023-03-04T11:24:26;12.48;;;2.97;;
54575;SDS011;40472;53.486;14.542;2023-03-04T11:27:04;8.48;;;2.15;;
54575;SDS011;40472;53.486;14.542;2023-03-04T11:29:38;4.60;;;2.22;;
54575;SDS011;40472;53.486;14.542;2023-03-04T11:32:44;11.93;;;1.35;;
54575;SDS011;40472;53.486;14.542;2023-03-04T11:40:34;16.77;;;3.55;;
54575;SDS011;40472;53.486;14.542;2023-03-04T11:43:06;9.10;;;4.57;;
54575;SDS011;40472;53.486;14.542;2023-03-04T11:54:00;4.88;;;1.85;;
54575;SDS011;40472;53.486;14.542;2023-03-04T11:56:56;2.13;;;1.40;;
54575;SDS011;40472;53.486;14.542;2023-03-04T12:00:00;4.45;;;0.93;;
54575;SDS011;40472;53.486;14.542;2023-03-04T12:03:17;4.45;;;1.27;;
54575;SDS011;40472;53.486;14.542;2023-03-04T12:13:32;1.45;;;0.47;;
54575;SDS011;40472;53.486;14.542;2023-03-04T12:19:01;3.00;;;1.35;;
54575;SDS011;40472;53.486;14.542;2023-03-04T12:35:27;3.45;;;1.20;;
54575;SDS011;40472;53.486;14.542;2023-03-04T12:43:19;5.97;;;1.70;;
54575;SDS011;40472;53.486;14.542;2023-03-04T12:51:40;2.03;;;1.20;;
54575;SDS011;40472;53.486;14.542;2023-03-04T12:54:48;7.28;;;1.55;;
54575;SDS011;40472;53.486;14.542;2023-03-04T13:00:24;1.17;;;0.60;;
54575;SDS011;40472;53.486;14.542;2023-03-04T13:05:28;1.17;;;0.68;;
54575;SDS011;40472;53.486;14.542;2023-03-04T13:10:49;3.92;;;1.02;;
54575;SDS011;40472;53.486;14.542;2023-03-04T13:16:26;2.88;;;0.52;;
54575;SDS011;40472;53.486;14.542;2023-03-04T13:19:00;0.77;;;0.50;;
54575;SDS011;40472;53.486;14.542;2023-03-04T13:21:56;2.75;;;1.38;;
54575;SDS011;40472;53.486;14.542;2023-03-04T13:42:03;2.17;;;1.55;;
54575;SDS011;40472;53.486;14.542;2023-03-04T13:44:30;1.40;;;0.55;;
54575;SDS011;40472;53.486;14.542;2023-03-04T13:47:06;0.43;;;0.38;;
54575;SDS011;40472;53.486;14.542;2023-03-04T13:53:21;0.68;;;0.47;;
54575;SDS011;40472;53.486;14.542;2023-03-04T13:58:45;0.83;;;0.57;;
54575;SDS011;40472;53.486;14.542;2023-03-04T14:01:33;1.00;;;0.73;;
54575;SDS011;40472;53.486;14.542;2023-03-04T14:04:11;1.52;;;0.90;;
54575;SDS011;40472;53.486;14.542;2023-03-04T14:06:44;1.65;;;0.68;;
54575;SDS011;40472;53.486;14.542;2023-03-04T14:09:15;0.60;;;0.45;;
54575;SDS011;40472;53.486;14.542;2023-03-04T14:11:46;1.65;;;0.70;;
54575;SDS011;40472;53.486;14.542;2023-03-04T14:14:17;2.97;;;0.80;;
54575;SDS011;40472;53.486;14.542;2023-03-04T14:16:53;0.30;;;0.28;;
54575;SDS011;40472;53.486;14.542;2023-03-04T14:19:23;0.20;;;0.20;;
54575;SDS011;40472;53.486;14.542;2023-03-04T14:21:51;1.88;;;0.93;;
54575;SDS011;40472;53.486;14.542;2023-03-04T14:24:18;2.75;;;0.70;;
54575;SDS011;40472;53.486;14.542;2023-03-04T14:26:45;0.28;;;0.28;;
54575;SDS011;40472;53.486;14.542;2023-03-04T14:29:25;1.27;;;0.30;;
54575;SDS011;40472;53.486;14.542;2023-03-04T14:31:53;0.32;;;0.30;;
54575;SDS011;40472;53.486;14.542;2023-03-04T14:34:24;0.60;;;0.60;;
54575;SDS011;40472;53.486;14.542;2023-03-04T14:37:00;1.55;;;0.43;;
54575;SDS011;40472;53.486;14.542;2023-03-04T14:39:31;0.13;;;0.13;;
54575;SDS011;40472;53.486;14.542;2023-03-04T14:42:07;2.28;;;0.25;;
54575;SDS011;40472;53.486;14.542;2023-03-04T14:44:38;1.00;;;0.20;;
54575;SDS011;40472;53.486;14.542;2023-03-04T14:47:24;0.57;;;0.38;;
54575;SDS011;40472;53.486;14.542;2023-03-04T14:50:05;1.83;;;0.30;;
54575;SDS011;40472;53.486;14.542;2023-03-04T14:52:39;0.50;;;0.50;;
54575;SDS011;40472;53.486;14.542;2023-03-04T14:57:48;0.55;;;0.20;;
54575;SDS011;40472;53.486;14.542;2023-03-04T15:00:33;1.33;;;0.28;;
54575;SDS011;40472;53.486;14.542;2023-03-04T15:03:24;0.20;;;0.20;;
54575;SDS011;40472;53.486;14.542;2023-03-04T15:05:52;0.43;;;0.30;;
54575;SDS011;40472;53.486;14.542;2023-03-04T15:10:54;0.25;;;0.25;;
54575;SDS011;40472;53.486;14.542;2023-03-04T15:13:42;0.20;;;0.20;;
54575;SDS011;40472;53.486;14.542;2023-03-04T15:16:11;0.10;;;0.10;;
54575;SDS011;40472;53.486;14.542;2023-03-04T15:18:53;0.43;;;0.25;;
54575;SDS011;40472;53.486;14.542;2023-03-04T15:23:45;2.90;;;0.52;;
54575;SDS011;40472;53.486;14.542;2023-03-04T15:26:11;0.40;;;0.30;;
54575;SDS011;40472;53.486;14.542;2023-03-04T15:28:38;3.55;;;0.30;;
54575;SDS011;40472;53.486;14.542;2023-03-04T15:31:06;2.97;;;0.35;;
54575;SDS011;40472;53.486;14.542;2023-03-04T15:33:42;13.95;;;6.28;;
54575;SDS011;40472;53.486;14.542;2023-03-04T15:36:11;22.77;;;6.45;;
54575;SDS011;40472;53.486;14.542;2023-03-04T15:38:42;25.35;;;7.22;;
54575;SDS011;40472;53.486;14.542;2023-03-04T15:41:12;3.70;;;1.10;;
54575;SDS011;40472;53.486;14.542;2023-03-04T15:43:42;0.75;;;0.63;;
54575;SDS011;40472;53.486;14.542;2023-03-04T15:46:09;0.90;;;0.50;;
54575;SDS011;40472;53.486;14.542;2023-03-04T15:48:36;0.30;;;0.30;;
54575;SDS011;40472;53.486;14.542;2023-03-04T15:51:01;0.35;;;0.30;;
54575;SDS011;40472;53.486;14.542;2023-03-04T15:53:41;0.32;;;0.32;;
54575;SDS011;40472;53.486;14.542;2023-03-04T15:56:09;1.17;;;0.85;;
54575;SDS011;40472;53.486;14.542;2023-03-04T15:58:41;0.73;;;0.50;;
54575;SDS011;40472;53.486;14.542;2023-03-04T16:01:08;1.48;;;0.63;;
54575;SDS011;40472;53.486;14.542;2023-03-04T16:03:39;1.13;;;0.75;;
54575;SDS011;40472;53.486;14.542;2023-03-04T16:06:07;1.05;;;0.50;;
54575;SDS011;40472;53.486;14.542;2023-03-04T16:08:37;0.75;;;0.47;;
54575;SDS011;40472;53.486;14.542;2023-03-04T16:11:04;2.53;;;0.90;;
54575;SDS011;40472;53.486;14.542;2023-03-04T16:13:31;2.78;;;1.80;;
54575;SDS011;40472;53.486;14.542;2023-03-04T16:15:57;3.92;;;1.20;;
54575;SDS011;40472;53.486;14.542;2023-03-04T16:18:22;1.38;;;0.70;;
54575;SDS011;40472;53.486;14.542;2023-03-04T16:20:48;0.63;;;0.63;;
54575;SDS011;40472;53.486;14.542;2023-03-04T16:23:16;2.70;;;0.50;;
54575;SDS011;40472;53.486;14.542;2023-03-04T16:25:46;0.75;;;0.50;;
54575;SDS011;40472;53.486;14.542;2023-03-04T16:28:14;1.35;;;0.40;;
54575;SDS011;40472;53.486;14.542;2023-03-04T16:30:40;0.85;;;0.70;;
54575;SDS011;40472;53.486;14.542;2023-03-04T16:33:06;1.33;;;0.70;;
54575;SDS011;40472;53.486;14.542;2023-03-04T16:35:33;2.30;;;1.23;;
54575;SDS011;40472;53.486;14.542;2023-03-04T16:38:00;3.25;;;1.30;;
54575;SDS011;40472;53.486;14.542;2023-03-04T16:40:27;1.15;;;0.80;;
54575;SDS011;40472;53.486;14.542;2023-03-04T16:42:54;7.53;;;1.00;;
54575;SDS011;40472;53.486;14.542;2023-03-04T16:45:21;0.93;;;0.35;;
54575;SDS011;40472;53.486;14.542;2023-03-04T16:47:49;1.15;;;0.85;;
54575;SDS011;40472;53.486;14.542;2023-03-04T16:50:16;2.88;;;1.30;;
54575;SDS011;40472;53.486;14.542;2023-03-04T16:52:51;1.85;;;0.65;;
54575;SDS011;40472;53.486;14.542;2023-03-04T16:55:22;2.67;;;0.68;;
54575;SDS011;40472;53.486;14.542;2023-03-04T16:57:52;3.88;;;1.00;;